TimeCST,TemperatureF,Dew PointF,Humidity,Sea Level PressureIn,VisibilityMPH,Wind Direction,Wind SpeedMPH,Gust SpeedMPH,PrecipitationIn,Events,Conditions,WindDirDegrees,DateUTC
12:15 AM,24.8,21.2,86,30.10,7.0,South,9.2,18.4,N/A,,Clear,170,2013-02-09 06:15:00
12:35 AM,24.8,23.0,93,30.10,7.0,SSE,13.8,-,N/A,,Scattered Clouds,160,2013-02-09 06:35:00
12:55 AM,26.6,23.0,86,30.10,7.0,South,11.5,-,N/A,,Scattered Clouds,170,2013-02-09 06:55:00
1:15 AM,26.6,24.8,93,30.09,7.0,South,12.7,-,N/A,,Scattered Clouds,170,2013-02-09 07:15:00
1:35 AM,26.6,24.8,93,30.08,7.0,SSE,13.8,17.3,N/A,,Mostly Cloudy,160,2013-02-09 07:35:00
1:55 AM,28.4,24.8,86,30.07,5.0,SSE,13.8,20.7,N/A,,Overcast,160,2013-02-09 07:55:00
2:15 AM,28.4,26.6,93,30.07,5.0,South,15.0,19.6,N/A,,Overcast,170,2013-02-09 08:15:00
2:35 AM,28.4,26.6,93,30.07,5.0,South,16.1,23.0,N/A,,Overcast,170,2013-02-09 08:35:00
2:55 AM,28.4,26.6,93,30.06,4.0,South,16.1,19.6,N/A,,Overcast,170,2013-02-09 08:55:00
3:15 AM,28.4,26.6,93,30.05,4.0,South,13.8,-,N/A,,Overcast,170,2013-02-09 09:15:00
3:35 AM,28.4,26.6,93,30.03,4.0,South,17.3,20.7,N/A,,Overcast,170,2013-02-09 09:35:00
3:55 AM,28.4,26.6,93,30.03,5.0,South,18.4,24.2,N/A,,Overcast,170,2013-02-09 09:55:00
4:15 AM,28.4,26.6,93,30.02,5.0,South,15.0,25.3,N/A,,Overcast,180,2013-02-09 10:15:00
4:35 AM,28.4,26.6,93,30.02,5.0,South,19.6,24.2,N/A,,Overcast,180,2013-02-09 10:35:00
4:55 AM,28.4,26.6,93,30.01,5.0,South,16.1,21.9,N/A,,Overcast,180,2013-02-09 10:55:00
5:15 AM,28.4,26.6,93,30.02,5.0,South,16.1,23.0,N/A,,Overcast,180,2013-02-09 11:15:00
5:35 AM,28.4,26.6,93,30.00,5.0,South,20.7,25.3,N/A,,Overcast,180,2013-02-09 11:35:00
5:55 AM,28.4,26.6,93,30.00,5.0,South,16.1,23.0,N/A,,Overcast,170,2013-02-09 11:55:00
6:15 AM,28.4,26.6,93,30.00,5.0,South,16.1,23.0,N/A,,Overcast,170,2013-02-09 12:15:00
6:35 AM,28.4,26.6,93,30.00,5.0,South,16.1,21.9,N/A,,Overcast,170,2013-02-09 12:35:00
6:55 AM,30.2,26.6,86,29.98,4.0,South,20.7,28.8,N/A,,Overcast,180,2013-02-09 12:55:00
7:15 AM,30.2,26.6,86,29.97,4.0,South,21.9,28.8,N/A,,Overcast,180,2013-02-09 13:15:00
7:35 AM,30.2,28.4,93,29.97,4.0,South,23.0,28.8,N/A,,Overcast,180,2013-02-09 13:35:00
7:55 AM,30.2,28.4,93,29.97,4.0,South,23.0,29.9,N/A,,Overcast,180,2013-02-09 13:55:00
8:15 AM,30.2,28.4,93,29.98,4.0,South,20.7,26.5,N/A,,Overcast,180,2013-02-09 14:15:00
8:35 AM,30.2,28.4,93,29.98,4.0,South,20.7,26.5,N/A,,Overcast,180,2013-02-09 14:35:00
8:55 AM,32.0,28.4,87,29.97,5.0,South,19.6,27.6,N/A,,Overcast,190,2013-02-09 14:55:00
9:15 AM,32.0,28.4,87,29.98,5.0,South,17.3,23.0,N/A,,Overcast,180,2013-02-09 15:15:00
9:35 AM,33.8,28.4,81,29.97,4.0,South,21.9,28.8,N/A,,Haze,190,2013-02-09 15:35:00
9:55 AM,33.8,28.4,81,29.96,4.0,South,19.6,26.5,N/A,,Haze,190,2013-02-09 15:55:00
10:15 AM,33.8,28.4,81,29.96,5.0,South,19.6,28.8,N/A,,Haze,180,2013-02-09 16:15:00
10:35 AM,35.6,28.4,75,29.95,5.0,South,18.4,24.2,N/A,,Haze,190,2013-02-09 16:35:00
10:55 AM,37.4,28.4,70,29.94,7.0,South,18.4,24.2,N/A,,Mostly Cloudy,180,2013-02-09 16:55:00
11:15 AM,37.4,28.4,70,29.93,7.0,South,20.7,28.8,N/A,,Scattered Clouds,190,2013-02-09 17:15:00
11:35 AM,39.2,28.4,65,29.92,7.0,South,25.3,-,N/A,,Clear,190,2013-02-09 17:35:00
11:55 AM,39.2,28.4,65,29.92,7.0,South,21.9,26.5,N/A,,Clear,190,2013-02-09 17:55:00
12:15 PM,41.0,28.4,61,29.90,7.0,South,20.7,26.5,N/A,,Clear,180,2013-02-09 18:15:00
12:35 PM,42.8,28.4,57,29.89,10.0,South,19.6,25.3,N/A,,Scattered Clouds,180,2013-02-09 18:35:00
12:55 PM,42.8,28.4,57,29.87,10.0,South,19.6,25.3,N/A,,Clear,190,2013-02-09 18:55:00
1:15 PM,44.6,30.2,57,29.86,10.0,South,19.6,25.3,N/A,,Clear,180,2013-02-09 19:15:00
1:35 PM,44.6,28.4,53,29.85,10.0,South,17.3,27.6,N/A,,Clear,180,2013-02-09 19:35:00
1:55 PM,44.6,30.2,57,29.83,10.0,South,21.9,27.6,N/A,,Clear,190,2013-02-09 19:55:00
2:15 PM,46.4,30.2,53,29.82,10.0,South,18.4,25.3,N/A,,Clear,180,2013-02-09 20:15:00
2:35 PM,46.4,30.2,53,29.80,10.0,South,18.4,25.3,N/A,,Clear,170,2013-02-09 20:35:00
2:55 PM,48.2,30.2,50,29.79,10.0,South,16.1,23.0,N/A,,Clear,190,2013-02-09 20:55:00
3:15 PM,46.4,30.2,53,29.78,10.0,South,18.4,26.5,N/A,,Clear,180,2013-02-09 21:15:00
3:35 PM,48.2,30.2,50,29.78,10.0,South,17.3,25.3,N/A,,Clear,180,2013-02-09 21:35:00
3:55 PM,48.2,30.2,50,29.78,10.0,South,18.4,23.0,N/A,,Clear,180,2013-02-09 21:55:00
4:15 PM,48.2,30.2,50,29.77,10.0,South,15.0,-,N/A,,Clear,180,2013-02-09 22:15:00
4:35 PM,46.4,30.2,53,29.76,10.0,South,12.7,20.7,N/A,,Clear,170,2013-02-09 22:35:00
4:55 PM,46.4,30.2,53,29.75,10.0,South,12.7,20.7,N/A,,Clear,180,2013-02-09 22:55:00
5:15 PM,44.6,30.2,57,29.76,10.0,South,9.2,-,N/A,,Clear,170,2013-02-09 23:15:00
5:35 PM,42.8,30.2,61,29.74,10.0,SSE,11.5,-,N/A,,Clear,150,2013-02-09 23:35:00
5:55 PM,42.8,32.0,66,29.76,10.0,South,13.8,-,N/A,,Clear,170,2013-02-09 23:55:00
6:15 PM,42.8,32.0,66,29.77,10.0,South,11.5,16.1,N/A,,Scattered Clouds,170,2013-02-10 00:15:00
6:35 PM,42.8,32.0,66,29.76,10.0,SSE,11.5,-,N/A,,Mostly Cloudy,160,2013-02-10 00:35:00
6:55 PM,42.8,32.0,66,29.76,10.0,SSE,11.5,-,N/A,,Mostly Cloudy,160,2013-02-10 00:55:00
7:35 PM,39.2,30.2,70,29.75,10.0,SSE,18.4,21.9,N/A,,Mostly Cloudy,150,2013-02-10 01:35:00
7:55 PM,39.2,30.2,70,29.76,10.0,SSE,15.0,-,N/A,,Mostly Cloudy,150,2013-02-10 01:55:00
8:15 PM,39.2,30.2,70,29.76,10.0,SSE,16.1,23.0,N/A,,Overcast,150,2013-02-10 02:15:00
8:35 PM,37.4,30.2,75,29.75,10.0,SSE,13.8,-,N/A,,Overcast,150,2013-02-10 02:35:00
8:55 PM,37.4,30.2,75,29.75,10.0,SE,8.1,-,N/A,,Overcast,140,2013-02-10 02:55:00
9:15 PM,37.4,30.2,75,29.74,10.0,SE,8.1,19.6,N/A,,Overcast,140,2013-02-10 03:15:00
9:35 PM,37.4,30.2,75,29.74,10.0,SSE,12.7,-,N/A,,Overcast,150,2013-02-10 03:35:00
9:55 PM,37.4,30.2,75,29.74,10.0,SE,9.2,-,N/A,,Overcast,140,2013-02-10 03:55:00
10:15 PM,35.6,30.2,81,29.72,10.0,SE,10.4,-,N/A,,Overcast,130,2013-02-10 04:15:00
10:35 PM,35.6,30.2,81,29.72,10.0,SE,8.1,-,N/A,,Overcast,140,2013-02-10 04:35:00
10:55 PM,35.6,30.2,81,29.71,10.0,SE,9.2,-,N/A,,Light Drizzle,130,2013-02-10 04:55:00
11:15 PM,35.6,30.2,81,29.71,10.0,SE,9.2,-,N/A,Rain,Light Rain,130,2013-02-10 05:15:00
11:35 PM,35.6,30.2,81,29.70,10.0,SE,9.2,-,N/A,,Overcast,130,2013-02-10 05:35:00
11:55 PM,35.6,30.2,81,29.70,10.0,SE,8.1,-,N/A,,Overcast,130,2013-02-10 05:55:00